sensor_id;sensor_type;location;lat;lon;timestamp;P1;durP1;ratioP1;P2;durP2;ratioP2
4724;SDS011;2376;53.544;10.226;2022-12-18T00:02:13;12.03;;;9.23;;
4724;SDS011;2376;53.544;10.226;2022-12-18T00:04:40;11.30;;;9.40;;
4724;SDS011;2376;53.544;10.226;2022-12-18T00:07:07;12.97;;;9.03;;
4724;SDS011;2376;53.544;10.226;2022-12-18T00:09:34;11.83;;;8.83;;
4724;SDS011;2376;53.544;10.226;2022-12-18T00:12:00;9.83;;;8.83;;
4724;SDS011;2376;53.544;10.226;2022-12-18T00:14:27;10.80;;;9.00;;
4724;SDS011;2376;53.544;10.226;2022-12-18T00:16:55;16.20;;;10.13;;
4724;SDS011;2376;53.544;10.226;2022-12-18T00:19:23;10.50;;;8.20;;
4724;SDS011;2376;53.544;10.226;2022-12-18T00:21:50;12.03;;;7.93;;
4724;SDS011;2376;53.544;10.226;2022-12-18T00:24:16;12.07;;;9.33;;
4724;SDS011;2376;53.544;10.226;2022-12-18T00:26:43;8.97;;;7.77;;
4724;SDS011;2376;53.544;10.226;2022-12-18T00:29:11;10.57;;;9.07;;
4724;SDS011;2376;53.544;10.226;2022-12-18T00:31:40;24.63;;;8.77;;
4724;SDS011;2376;53.544;10.226;2022-12-18T00:34:10;9.67;;;8.30;;
4724;SDS011;2376;53.544;10.226;2022-12-18T00:36:38;10.43;;;8.23;;
4724;SDS011;2376;53.544;10.226;2022-12-18T00:39:06;11.50;;;8.47;;
4724;SDS011;2376;53.544;10.226;2022-12-18T00:41:33;9.60;;;8.70;;
4724;SDS011;2376;53.544;10.226;2022-12-18T00:44:18;11.30;;;7.70;;
4724;SDS011;2376;53.544;10.226;2022-12-18T00:46:45;9.70;;;7.97;;
4724;SDS011;2376;53.544;10.226;2022-12-18T00:49:14;9.67;;;8.47;;
4724;SDS011;2376;53.544;10.226;2022-12-18T00:51:42;8.50;;;7.30;;
4724;SDS011;2376;53.544;10.226;2022-12-18T00:54:09;7.80;;;7.10;;
4724;SDS011;2376;53.544;10.226;2022-12-18T00:56:36;10.70;;;8.23;;
4724;SDS011;2376;53.544;10.226;2022-12-18T00:59:04;9.80;;;8.33;;
4724;SDS011;2376;53.544;10.226;2022-12-18T01:01:31;11.20;;;8.00;;
4724;SDS011;2376;53.544;10.226;2022-12-18T01:03:59;9.50;;;7.87;;
4724;SDS011;2376;53.544;10.226;2022-12-18T01:06:27;8.70;;;7.80;;
4724;SDS011;2376;53.544;10.226;2022-12-18T01:08:54;8.43;;;6.90;;
4724;SDS011;2376;53.544;10.226;2022-12-18T01:11:21;7.07;;;6.47;;
4724;SDS011;2376;53.544;10.226;2022-12-18T01:13:48;7.43;;;6.70;;
4724;SDS011;2376;53.544;10.226;2022-12-18T01:16:15;10.70;;;8.10;;
4724;SDS011;2376;53.544;10.226;2022-12-18T01:18:44;8.70;;;6.93;;
4724;SDS011;2376;53.544;10.226;2022-12-18T01:21:13;8.70;;;7.00;;
4724;SDS011;2376;53.544;10.226;2022-12-18T01:23:46;15.80;;;8.17;;
4724;SDS011;2376;53.544;10.226;2022-12-18T01:26:14;9.70;;;6.60;;
4724;SDS011;2376;53.544;10.226;2022-12-18T01:28:41;8.27;;;6.73;;
4724;SDS011;2376;53.544;10.226;2022-12-18T01:31:13;8.03;;;7.20;;
4724;SDS011;2376;53.544;10.226;2022-12-18T01:33:42;9.10;;;6.87;;
4724;SDS011;2376;53.544;10.226;2022-12-18T01:36:14;8.80;;;7.90;;
4724;SDS011;2376;53.544;10.226;2022-12-18T01:38:41;10.60;;;7.47;;
4724;SDS011;2376;53.544;10.226;2022-12-18T01:41:10;8.47;;;7.60;;
4724;SDS011;2376;53.544;10.226;2022-12-18T01:43:40;9.33;;;7.30;;
4724;SDS011;2376;53.544;10.226;2022-12-18T01:46:08;8.73;;;7.43;;
4724;SDS011;2376;53.544;10.226;2022-12-18T01:48:35;8.43;;;7.03;;
4724;SDS011;2376;53.544;10.226;2022-12-18T01:51:03;10.80;;;7.53;;
4724;SDS011;2376;53.544;10.226;2022-12-18T01:53:31;9.30;;;7.13;;
4724;SDS011;2376;53.544;10.226;2022-12-18T01:55:58;6.90;;;5.83;;
4724;SDS011;2376;53.544;10.226;2022-12-18T01:58:29;13.23;;;7.10;;
4724;SDS011;2376;53.544;10.226;2022-12-18T02:01:01;10.93;;;6.67;;
4724;SDS011;2376;53.544;10.226;2022-12-18T02:03:28;8.17;;;6.97;;
4724;SDS011;2376;53.544;10.226;2022-12-18T02:05:56;9.70;;;6.93;;
4724;SDS011;2376;53.544;10.226;2022-12-18T02:08:28;10.17;;;7.33;;
4724;SDS011;2376;53.544;10.226;2022-12-18T02:11:01;7.03;;;6.20;;
4724;SDS011;2376;53.544;10.226;2022-12-18T02:13:36;10.60;;;6.83;;
4724;SDS011;2376;53.544;10.226;2022-12-18T02:16:08;8.40;;;7.27;;
4724;SDS011;2376;53.544;10.226;2022-12-18T02:18:42;11.90;;;7.77;;
4724;SDS011;2376;53.544;10.226;2022-12-18T02:21:13;7.70;;;6.87;;
4724;SDS011;2376;53.544;10.226;2022-12-18T02:23:52;7.47;;;6.40;;
4724;SDS011;2376;53.544;10.226;2022-12-18T02:26:25;8.20;;;6.97;;
4724;SDS011;2376;53.544;10.226;2022-12-18T02:28:58;7.67;;;6.87;;
4724;SDS011;2376;53.544;10.226;2022-12-18T02:31:30;10.80;;;7.47;;
4724;SDS011;2376;53.544;10.226;2022-12-18T02:34:02;11.90;;;7.00;;
4724;SDS011;2376;53.544;10.226;2022-12-18T02:36:32;7.70;;;6.03;;
4724;SDS011;2376;53.544;10.226;2022-12-18T02:39:00;8.33;;;6.20;;
4724;SDS011;2376;53.544;10.226;2022-12-18T02:41:29;7.97;;;6.13;;
4724;SDS011;2376;53.544;10.226;2022-12-18T02:43:58;8.00;;;6.40;;
4724;SDS011;2376;53.544;10.226;2022-12-18T02:46:28;7.23;;;6.57;;
4724;SDS011;2376;53.544;10.226;2022-12-18T02:49:01;10.83;;;6.80;;
4724;SDS011;2376;53.544;10.226;2022-12-18T02:51:39;7.63;;;6.37;;
4724;SDS011;2376;53.544;10.226;2022-12-18T02:54:16;6.83;;;6.13;;
4724;SDS011;2376;53.544;10.226;2022-12-18T02:56:56;6.53;;;5.90;;
4724;SDS011;2376;53.544;10.226;2022-12-18T02:59:27;9.60;;;6.17;;
4724;SDS011;2376;53.544;10.226;2022-12-18T03:02:05;9.17;;;5.80;;
4724;SDS011;2376;53.544;10.226;2022-12-18T03:04:37;12.90;;;7.37;;
4724;SDS011;2376;53.544;10.226;2022-12-18T03:07:08;11.73;;;8.43;;
4724;SDS011;2376;53.544;10.226;2022-12-18T03:09:42;11.43;;;7.47;;
4724;SDS011;2376;53.544;10.226;2022-12-18T03:12:14;15.10;;;7.60;;
4724;SDS011;2376;53.544;10.226;2022-12-18T03:14:50;10.73;;;7.27;;
4724;SDS011;2376;53.544;10.226;2022-12-18T03:17:24;7.43;;;6.30;;
4724;SDS011;2376;53.544;10.226;2022-12-18T03:19:54;9.73;;;6.40;;
4724;SDS011;2376;53.544;10.226;2022-12-18T03:22:24;10.03;;;6.90;;
4724;SDS011;2376;53.544;10.226;2022-12-18T03:24:55;11.03;;;7.60;;
4724;SDS011;2376;53.544;10.226;2022-12-18T03:27:25;9.63;;;6.60;;
4724;SDS011;2376;53.544;10.226;2022-12-18T03:29:55;7.87;;;7.10;;
4724;SDS011;2376;53.544;10.226;2022-12-18T03:32:32;8.13;;;6.77;;
4724;SDS011;2376;53.544;10.226;2022-12-18T03:35:03;7.87;;;6.53;;
4724;SDS011;2376;53.544;10.226;2022-12-18T03:37:31;7.07;;;5.97;;
4724;SDS011;2376;53.544;10.226;2022-12-18T03:39:58;6.93;;;5.73;;
4724;SDS011;2376;53.544;10.226;2022-12-18T03:42:27;12.20;;;6.70;;
4724;SDS011;2376;53.544;10.226;2022-12-18T03:45:00;6.17;;;5.57;;
4724;SDS011;2376;53.544;10.226;2022-12-18T03:47:32;8.20;;;6.00;;
4724;SDS011;2376;53.544;10.226;2022-12-18T03:50:03;10.23;;;7.00;;
4724;SDS011;2376;53.544;10.226;2022-12-18T03:52:36;9.23;;;7.03;;
4724;SDS011;2376;53.544;10.226;2022-12-18T03:55:05;9.70;;;6.30;;
4724;SDS011;2376;53.544;10.226;2022-12-18T03:57:36;16.20;;;7.37;;
4724;SDS011;2376;53.544;10.226;2022-12-18T04:00:05;8.47;;;6.70;;
4724;SDS011;2376;53.544;10.226;2022-12-18T04:02:34;11.90;;;6.67;;
4724;SDS011;2376;53.544;10.226;2022-12-18T04:05:04;9.13;;;7.43;;
4724;SDS011;2376;53.544;10.226;2022-12-18T04:07:32;8.13;;;7.00;;
4724;SDS011;2376;53.544;10.226;2022-12-18T04:10:00;10.57;;;7.00;;
4724;SDS011;2376;53.544;10.226;2022-12-18T04:12:29;8.73;;;6.77;;
4724;SDS011;2376;53.544;10.226;2022-12-18T04:14:57;8.40;;;6.63;;
4724;SDS011;2376;53.544;10.226;2022-12-18T04:17:24;11.17;;;7.17;;
4724;SDS011;2376;53.544;10.226;2022-12-18T04:19:51;12.50;;;7.07;;
4724;SDS011;2376;53.544;10.226;2022-12-18T04:22:17;9.13;;;8.00;;
4724;SDS011;2376;53.544;10.226;2022-12-18T04:24:44;9.30;;;6.73;;
4724;SDS011;2376;53.544;10.226;2022-12-18T04:27:11;7.97;;;6.80;;
4724;SDS011;2376;53.544;10.226;2022-12-18T04:29:37;9.93;;;7.67;;
4724;SDS011;2376;53.544;10.226;2022-12-18T04:32:05;8.73;;;7.73;;
4724;SDS011;2376;53.544;10.226;2022-12-18T04:34:33;7.60;;;6.50;;
4724;SDS011;2376;53.544;10.226;2022-12-18T04:37:00;10.00;;;6.80;;
4724;SDS011;2376;53.544;10.226;2022-12-18T04:39:26;6.73;;;5.93;;
4724;SDS011;2376;53.544;10.226;2022-12-18T04:41:53;9.20;;;7.47;;
4724;SDS011;2376;53.544;10.226;2022-12-18T04:44:20;7.33;;;6.60;;
4724;SDS011;2376;53.544;10.226;2022-12-18T04:46:46;9.87;;;7.20;;
4724;SDS011;2376;53.544;10.226;2022-12-18T04:49:14;11.23;;;8.00;;
4724;SDS011;2376;53.544;10.226;2022-12-18T04:51:41;8.20;;;7.30;;
4724;SDS011;2376;53.544;10.226;2022-12-18T04:54:08;6.60;;;6.03;;
4724;SDS011;2376;53.544;10.226;2022-12-18T04:56:34;8.03;;;6.73;;
4724;SDS011;2376;53.544;10.226;2022-12-18T04:59:01;8.03;;;7.23;;
4724;SDS011;2376;53.544;10.226;2022-12-18T05:01:28;7.27;;;6.67;;
4724;SDS011;2376;53.544;10.226;2022-12-18T05:03:55;11.30;;;7.70;;
4724;SDS011;2376;53.544;10.226;2022-12-18T05:06:23;15.57;;;8.07;;
4724;SDS011;2376;53.544;10.226;2022-12-18T05:08:49;9.70;;;7.70;;
4724;SDS011;2376;53.544;10.226;2022-12-18T05:11:16;9.50;;;7.17;;
4724;SDS011;2376;53.544;10.226;2022-12-18T05:13:43;9.03;;;7.50;;
4724;SDS011;2376;53.544;10.226;2022-12-18T05:16:11;17.13;;;7.97;;
4724;SDS011;2376;53.544;10.226;2022-12-18T05:18:38;8.43;;;7.30;;
4724;SDS011;2376;53.544;10.226;2022-12-18T05:21:04;8.57;;;7.07;;
4724;SDS011;2376;53.544;10.226;2022-12-18T05:23:33;10.63;;;8.20;;
4724;SDS011;2376;53.544;10.226;2022-12-18T05:26:00;11.40;;;7.70;;
4724;SDS011;2376;53.544;10.226;2022-12-18T05:28:29;8.97;;;7.93;;
4724;SDS011;2376;53.544;10.226;2022-12-18T05:30:57;9.43;;;7.30;;
4724;SDS011;2376;53.544;10.226;2022-12-18T05:33:26;12.10;;;8.10;;
4724;SDS011;2376;53.544;10.226;2022-12-18T05:35:55;10.77;;;7.70;;
4724;SDS011;2376;53.544;10.226;2022-12-18T05:38:23;9.27;;;7.60;;
4724;SDS011;2376;53.544;10.226;2022-12-18T05:40:53;9.10;;;7.40;;
4724;SDS011;2376;53.544;10.226;2022-12-18T05:43:20;11.70;;;7.23;;
4724;SDS011;2376;53.544;10.226;2022-12-18T05:45:48;12.70;;;7.90;;
4724;SDS011;2376;53.544;10.226;2022-12-18T05:48:15;12.17;;;7.60;;
4724;SDS011;2376;53.544;10.226;2022-12-18T05:50:43;8.43;;;6.30;;
4724;SDS011;2376;53.544;10.226;2022-12-18T05:53:11;9.30;;;7.60;;
4724;SDS011;2376;53.544;10.226;2022-12-18T05:55:39;11.20;;;8.47;;
4724;SDS011;2376;53.544;10.226;2022-12-18T05:58:08;12.43;;;7.63;;
4724;SDS011;2376;53.544;10.226;2022-12-18T06:00:36;10.93;;;7.77;;
4724;SDS011;2376;53.544;10.226;2022-12-18T06:03:05;11.50;;;7.53;;
4724;SDS011;2376;53.544;10.226;2022-12-18T06:05:34;9.73;;;8.43;;
4724;SDS011;2376;53.544;10.226;2022-12-18T06:08:01;12.70;;;8.60;;
4724;SDS011;2376;53.544;10.226;2022-12-18T06:10:28;10.93;;;8.20;;
4724;SDS011;2376;53.544;10.226;2022-12-18T06:12:55;9.47;;;8.33;;
4724;SDS011;2376;53.544;10.226;2022-12-18T06:15:23;10.00;;;8.03;;
4724;SDS011;2376;53.544;10.226;2022-12-18T06:17:50;11.33;;;8.27;;
4724;SDS011;2376;53.544;10.226;2022-12-18T06:20:16;9.70;;;8.40;;
4724;SDS011;2376;53.544;10.226;2022-12-18T06:22:44;9.37;;;8.23;;
4724;SDS011;2376;53.544;10.226;2022-12-18T06:25:10;10.03;;;7.70;;
4724;SDS011;2376;53.544;10.226;2022-12-18T06:27:37;10.43;;;8.73;;
4724;SDS011;2376;53.544;10.226;2022-12-18T06:30:04;9.83;;;8.30;;
4724;SDS011;2376;53.544;10.226;2022-12-18T06:32:34;9.13;;;8.20;;
4724;SDS011;2376;53.544;10.226;2022-12-18T06:35:00;10.00;;;8.07;;
4724;SDS011;2376;53.544;10.226;2022-12-18T06:37:27;9.67;;;7.23;;
4724;SDS011;2376;53.544;10.226;2022-12-18T06:39:54;9.63;;;8.17;;
4724;SDS011;2376;53.544;10.226;2022-12-18T06:42:21;10.50;;;8.63;;
4724;SDS011;2376;53.544;10.226;2022-12-18T06:44:48;9.13;;;8.17;;
4724;SDS011;2376;53.544;10.226;2022-12-18T06:47:15;9.63;;;7.10;;
4724;SDS011;2376;53.544;10.226;2022-12-18T06:49:43;14.97;;;9.40;;
4724;SDS011;2376;53.544;10.226;2022-12-18T06:52:10;11.90;;;9.20;;
4724;SDS011;2376;53.544;10.226;2022-12-18T06:54:36;9.30;;;7.63;;
4724;SDS011;2376;53.544;10.226;2022-12-18T06:57:03;11.00;;;8.60;;
4724;SDS011;2376;53.544;10.226;2022-12-18T06:59:30;10.67;;;9.20;;
4724;SDS011;2376;53.544;10.226;2022-12-18T07:01:57;9.83;;;8.37;;
4724;SDS011;2376;53.544;10.226;2022-12-18T07:04:26;16.90;;;8.57;;
4724;SDS011;2376;53.544;10.226;2022-12-18T07:06:55;13.50;;;9.73;;
4724;SDS011;2376;53.544;10.226;2022-12-18T07:09:22;17.93;;;9.97;;
4724;SDS011;2376;53.544;10.226;2022-12-18T07:11:49;11.97;;;8.03;;
4724;SDS011;2376;53.544;10.226;2022-12-18T07:14:15;14.53;;;9.20;;
4724;SDS011;2376;53.544;10.226;2022-12-18T07:16:42;14.97;;;7.73;;
4724;SDS011;2376;53.544;10.226;2022-12-18T07:19:09;10.30;;;8.83;;
4724;SDS011;2376;53.544;10.226;2022-12-18T07:21:36;13.27;;;9.07;;
4724;SDS011;2376;53.544;10.226;2022-12-18T07:24:04;16.10;;;9.80;;
4724;SDS011;2376;53.544;10.226;2022-12-18T07:26:32;16.40;;;12.00;;
4724;SDS011;2376;53.544;10.226;2022-12-18T07:28:59;14.93;;;13.43;;
4724;SDS011;2376;53.544;10.226;2022-12-18T07:31:26;13.60;;;10.63;;
4724;SDS011;2376;53.544;10.226;2022-12-18T07:33:56;16.70;;;13.73;;
4724;SDS011;2376;53.544;10.226;2022-12-18T07:36:23;16.80;;;11.77;;
4724;SDS011;2376;53.544;10.226;2022-12-18T07:38:50;13.87;;;9.70;;
4724;SDS011;2376;53.544;10.226;2022-12-18T07:41:19;15.70;;;9.30;;
4724;SDS011;2376;53.544;10.226;2022-12-18T07:43:47;16.60;;;9.17;;
4724;SDS011;2376;53.544;10.226;2022-12-18T07:46:14;17.87;;;9.60;;
4724;SDS011;2376;53.544;10.226;2022-12-18T07:48:41;11.10;;;8.63;;
4724;SDS011;2376;53.544;10.226;2022-12-18T07:51:09;12.63;;;10.13;;
4724;SDS011;2376;53.544;10.226;2022-12-18T07:53:37;19.50;;;13.67;;
4724;SDS011;2376;53.544;10.226;2022-12-18T07:56:05;18.20;;;14.83;;
4724;SDS011;2376;53.544;10.226;2022-12-18T07:58:35;15.70;;;11.70;;
4724;SDS011;2376;53.544;10.226;2022-12-18T08:01:03;15.37;;;10.90;;
4724;SDS011;2376;53.544;10.226;2022-12-18T08:03:30;15.73;;;10.80;;
4724;SDS011;2376;53.544;10.226;2022-12-18T08:05:58;14.23;;;8.90;;
4724;SDS011;2376;53.544;10.226;2022-12-18T08:08:28;12.00;;;8.63;;
4724;SDS011;2376;53.544;10.226;2022-12-18T08:11:10;11.03;;;8.97;;
4724;SDS011;2376;53.544;10.226;2022-12-18T08:13:38;8.53;;;7.70;;
4724;SDS011;2376;53.544;10.226;2022-12-18T08:16:05;12.97;;;8.00;;
4724;SDS011;2376;53.544;10.226;2022-12-18T08:18:34;13.53;;;9.20;;
4724;SDS011;2376;53.544;10.226;2022-12-18T08:21:07;9.70;;;8.50;;
4724;SDS011;2376;53.544;10.226;2022-12-18T08:23:34;13.00;;;9.10;;
4724;SDS011;2376;53.544;10.226;2022-12-18T08:26:01;9.20;;;8.27;;
4724;SDS011;2376;53.544;10.226;2022-12-18T08:28:28;13.00;;;10.33;;
4724;SDS011;2376;53.544;10.226;2022-12-18T08:30:56;14.67;;;9.70;;
4724;SDS011;2376;53.544;10.226;2022-12-18T08:33:25;16.80;;;9.87;;
4724;SDS011;2376;53.544;10.226;2022-12-18T08:35:52;12.60;;;10.00;;
4724;SDS011;2376;53.544;10.226;2022-12-18T08:38:19;19.00;;;15.23;;
4724;SDS011;2376;53.544;10.226;2022-12-18T08:40:48;16.07;;;12.17;;
4724;SDS011;2376;53.544;10.226;2022-12-18T08:43:16;12.87;;;10.73;;
4724;SDS011;2376;53.544;10.226;2022-12-18T08:46:02;16.03;;;14.43;;
4724;SDS011;2376;53.544;10.226;2022-12-18T08:48:28;16.80;;;12.90;;
4724;SDS011;2376;53.544;10.226;2022-12-18T08:50:55;15.53;;;12.30;;
4724;SDS011;2376;53.544;10.226;2022-12-18T08:53:23;14.07;;;10.47;;
4724;SDS011;2376;53.544;10.226;2022-12-18T08:55:50;17.30;;;9.40;;
4724;SDS011;2376;53.544;10.226;2022-12-18T08:58:16;9.67;;;8.33;;
4724;SDS011;2376;53.544;10.226;2022-12-18T09:00:43;14.60;;;10.23;;
4724;SDS011;2376;53.544;10.226;2022-12-18T09:03:12;13.10;;;9.60;;
4724;SDS011;2376;53.544;10.226;2022-12-18T09:05:39;10.17;;;9.10;;
4724;SDS011;2376;53.544;10.226;2022-12-18T09:08:06;17.23;;;9.80;;
4724;SDS011;2376;53.544;10.226;2022-12-18T09:10:33;14.13;;;9.40;;
4724;SDS011;2376;53.544;10.226;2022-12-18T09:13:00;12.77;;;9.20;;
4724;SDS011;2376;53.544;10.226;2022-12-18T09:15:26;13.07;;;8.33;;
4724;SDS011;2376;53.544;10.226;2022-12-18T09:17:53;14.60;;;9.70;;
4724;SDS011;2376;53.544;10.226;2022-12-18T09:20:21;11.93;;;9.30;;
4724;SDS011;2376;53.544;10.226;2022-12-18T09:22:48;12.33;;;9.50;;
4724;SDS011;2376;53.544;10.226;2022-12-18T09:25:15;15.37;;;12.20;;
4724;SDS011;2376;53.544;10.226;2022-12-18T09:27:41;13.33;;;11.23;;
4724;SDS011;2376;53.544;10.226;2022-12-18T09:30:08;12.70;;;9.13;;
4724;SDS011;2376;53.544;10.226;2022-12-18T09:32:36;11.10;;;8.77;;
4724;SDS011;2376;53.544;10.226;2022-12-18T09:35:03;12.90;;;9.20;;
4724;SDS011;2376;53.544;10.226;2022-12-18T09:37:31;11.90;;;8.80;;
4724;SDS011;2376;53.544;10.226;2022-12-18T09:39:58;10.57;;;9.07;;
4724;SDS011;2376;53.544;10.226;2022-12-18T09:42:24;9.83;;;8.60;;
4724;SDS011;2376;53.544;10.226;2022-12-18T09:44:52;12.40;;;9.13;;
4724;SDS011;2376;53.544;10.226;2022-12-18T09:47:21;13.30;;;8.80;;
4724;SDS011;2376;53.544;10.226;2022-12-18T09:49:52;13.47;;;10.03;;
4724;SDS011;2376;53.544;10.226;2022-12-18T09:52:21;13.67;;;8.60;;
4724;SDS011;2376;53.544;10.226;2022-12-18T09:54:55;14.50;;;9.80;;
4724;SDS011;2376;53.544;10.226;2022-12-18T09:57:25;12.07;;;9.33;;
4724;SDS011;2376;53.544;10.226;2022-12-18T09:59:53;14.47;;;9.60;;
4724;SDS011;2376;53.544;10.226;2022-12-18T10:02:22;10.50;;;8.57;;
4724;SDS011;2376;53.544;10.226;2022-12-18T10:04:55;11.60;;;9.80;;
4724;SDS011;2376;53.544;10.226;2022-12-18T10:07:30;11.87;;;9.30;;
4724;SDS011;2376;53.544;10.226;2022-12-18T10:10:06;11.47;;;8.63;;
4724;SDS011;2376;53.544;10.226;2022-12-18T10:12:42;9.37;;;8.27;;
4724;SDS011;2376;53.544;10.226;2022-12-18T10:15:16;11.90;;;8.50;;
4724;SDS011;2376;53.544;10.226;2022-12-18T10:17:49;11.40;;;8.20;;
4724;SDS011;2376;53.544;10.226;2022-12-18T10:20:24;10.33;;;8.60;;
4724;SDS011;2376;53.544;10.226;2022-12-18T10:22:57;10.97;;;8.50;;
4724;SDS011;2376;53.544;10.226;2022-12-18T10:25:32;12.17;;;9.13;;
4724;SDS011;2376;53.544;10.226;2022-12-18T10:28:07;14.97;;;9.13;;
4724;SDS011;2376;53.544;10.226;2022-12-18T10:30:38;14.83;;;9.90;;
4724;SDS011;2376;53.544;10.226;2022-12-18T10:33:08;11.43;;;8.10;;
4724;SDS011;2376;53.544;10.226;2022-12-18T10:35:37;12.20;;;9.73;;
4724;SDS011;2376;53.544;10.226;2022-12-18T10:38:20;13.17;;;10.00;;
4724;SDS011;2376;53.544;10.226;2022-12-18T10:40:50;10.80;;;8.57;;
4724;SDS011;2376;53.544;10.226;2022-12-18T10:43:22;15.00;;;9.73;;
4724;SDS011;2376;53.544;10.226;2022-12-18T10:45:57;11.20;;;8.17;;
4724;SDS011;2376;53.544;10.226;2022-12-18T10:48:31;12.80;;;8.73;;
4724;SDS011;2376;53.544;10.226;2022-12-18T10:51:01;12.57;;;8.57;;
4724;SDS011;2376;53.544;10.226;2022-12-18T10:53:30;12.50;;;9.57;;
4724;SDS011;2376;53.544;10.226;2022-12-18T10:56:00;13.13;;;8.10;;
4724;SDS011;2376;53.544;10.226;2022-12-18T10:58:30;13.20;;;9.03;;
4724;SDS011;2376;53.544;10.226;2022-12-18T11:01:02;13.27;;;9.43;;
4724;SDS011;2376;53.544;10.226;2022-12-18T11:03:35;13.00;;;9.07;;
4724;SDS011;2376;53.544;10.226;2022-12-18T11:06:07;11.63;;;8.60;;
4724;SDS011;2376;53.544;10.226;2022-12-18T11:08:35;13.30;;;9.87;;
4724;SDS011;2376;53.544;10.226;2022-12-18T11:11:06;12.20;;;9.60;;
4724;SDS011;2376;53.544;10.226;2022-12-18T11:13:42;13.60;;;8.87;;
4724;SDS011;2376;53.544;10.226;2022-12-18T11:16:25;11.53;;;9.10;;
4724;SDS011;2376;53.544;10.226;2022-12-18T11:18:53;13.57;;;8.97;;
4724;SDS011;2376;53.544;10.226;2022-12-18T11:21:20;16.93;;;9.03;;
4724;SDS011;2376;53.544;10.226;2022-12-18T11:23:48;12.27;;;8.90;;
4724;SDS011;2376;53.544;10.226;2022-12-18T11:26:18;10.80;;;9.03;;
4724;SDS011;2376;53.544;10.226;2022-12-18T11:28:47;15.50;;;9.60;;
4724;SDS011;2376;53.544;10.226;2022-12-18T11:31:18;11.83;;;9.40;;
4724;SDS011;2376;53.544;10.226;2022-12-18T11:33:49;14.13;;;10.90;;
4724;SDS011;2376;53.544;10.226;2022-12-18T11:36:20;10.80;;;8.30;;
4724;SDS011;2376;53.544;10.226;2022-12-18T11:38:48;10.00;;;8.33;;
4724;SDS011;2376;53.544;10.226;2022-12-18T11:41:21;13.63;;;9.07;;
4724;SDS011;2376;53.544;10.226;2022-12-18T11:44:14;14.27;;;9.40;;
4724;SDS011;2376;53.544;10.226;2022-12-18T11:46:46;16.20;;;9.93;;
4724;SDS011;2376;53.544;10.226;2022-12-18T11:49:19;14.90;;;10.37;;
4724;SDS011;2376;53.544;10.226;2022-12-18T11:51:52;14.80;;;10.40;;
4724;SDS011;2376;53.544;10.226;2022-12-18T11:54:23;13.10;;;10.00;;
4724;SDS011;2376;53.544;10.226;2022-12-18T11:56:53;14.43;;;9.33;;
4724;SDS011;2376;53.544;10.226;2022-12-18T11:59:27;14.13;;;9.20;;
4724;SDS011;2376;53.544;10.226;2022-12-18T12:02:01;14.23;;;9.20;;
4724;SDS011;2376;53.544;10.226;2022-12-18T12:04:47;12.93;;;9.67;;
4724;SDS011;2376;53.544;10.226;2022-12-18T12:07:25;13.03;;;9.70;;
4724;SDS011;2376;53.544;10.226;2022-12-18T12:10:01;13.30;;;9.30;;
4724;SDS011;2376;53.544;10.226;2022-12-18T12:12:39;15.20;;;10.20;;
4724;SDS011;2376;53.544;10.226;2022-12-18T12:15:25;12.43;;;10.00;;
4724;SDS011;2376;53.544;10.226;2022-12-18T12:18:01;9.67;;;8.00;;
4724;SDS011;2376;53.544;10.226;2022-12-18T12:20:37;12.47;;;9.37;;
4724;SDS011;2376;53.544;10.226;2022-12-18T12:23:13;11.27;;;8.70;;
4724;SDS011;2376;53.544;10.226;2022-12-18T12:25:46;10.50;;;8.80;;
4724;SDS011;2376;53.544;10.226;2022-12-18T12:28:22;10.57;;;9.17;;
4724;SDS011;2376;53.544;10.226;2022-12-18T12:31:05;11.87;;;8.23;;
4724;SDS011;2376;53.544;10.226;2022-12-18T12:33:40;14.33;;;9.67;;
4724;SDS011;2376;53.544;10.226;2022-12-18T12:36:17;15.03;;;9.77;;
4724;SDS011;2376;53.544;10.226;2022-12-18T12:38:56;12.97;;;8.17;;
4724;SDS011;2376;53.544;10.226;2022-12-18T12:41:26;13.47;;;10.07;;
4724;SDS011;2376;53.544;10.226;2022-12-18T12:44:16;12.23;;;8.77;;
4724;SDS011;2376;53.544;10.226;2022-12-18T12:46:46;12.07;;;8.60;;
4724;SDS011;2376;53.544;10.226;2022-12-18T12:49:15;13.37;;;8.77;;
4724;SDS011;2376;53.544;10.226;2022-12-18T12:51:50;12.30;;;8.90;;
4724;SDS011;2376;53.544;10.226;2022-12-18T12:54:24;11.17;;;9.77;;
4724;SDS011;2376;53.544;10.226;2022-12-18T12:56:54;12.20;;;8.93;;
4724;SDS011;2376;53.544;10.226;2022-12-18T12:59:30;12.30;;;8.30;;
4724;SDS011;2376;53.544;10.226;2022-12-18T13:02:05;14.00;;;8.63;;
4724;SDS011;2376;53.544;10.226;2022-12-18T13:04:42;12.30;;;8.90;;
4724;SDS011;2376;53.544;10.226;2022-12-18T13:07:15;11.00;;;8.03;;
4724;SDS011;2376;53.544;10.226;2022-12-18T13:12:46;14.43;;;9.60;;
4724;SDS011;2376;53.544;10.226;2022-12-18T13:15:26;11.33;;;8.60;;
4724;SDS011;2376;53.544;10.226;2022-12-18T13:20:48;11.97;;;9.43;;
4724;SDS011;2376;53.544;10.226;2022-12-18T13:23:23;13.30;;;9.50;;
4724;SDS011;2376;53.544;10.226;2022-12-18T13:25:56;12.70;;;9.30;;
4724;SDS011;2376;53.544;10.226;2022-12-18T13:28:37;14.70;;;9.83;;
4724;SDS011;2376;53.544;10.226;2022-12-18T13:31:57;14.63;;;10.20;;
4724;SDS011;2376;53.544;10.226;2022-12-18T13:34:34;13.53;;;9.90;;
4724;SDS011;2376;53.544;10.226;2022-12-18T13:43:30;14.40;;;9.33;;
4724;SDS011;2376;53.544;10.226;2022-12-18T13:46:04;11.10;;;7.90;;
4724;SDS011;2376;53.544;10.226;2022-12-18T13:48:59;16.77;;;8.77;;
4724;SDS011;2376;53.544;10.226;2022-12-18T13:51:29;10.87;;;8.10;;
4724;SDS011;2376;53.544;10.226;2022-12-18T13:54:00;13.17;;;8.00;;
4724;SDS011;2376;53.544;10.226;2022-12-18T13:56:29;13.87;;;9.30;;
4724;SDS011;2376;53.544;10.226;2022-12-18T13:59:11;17.23;;;9.83;;
4724;SDS011;2376;53.544;10.226;2022-12-18T14:01:47;12.23;;;9.10;;
4724;SDS011;2376;53.544;10.226;2022-12-18T14:04:20;11.80;;;7.90;;
4724;SDS011;2376;53.544;10.226;2022-12-18T14:06:50;12.73;;;9.37;;
4724;SDS011;2376;53.544;10.226;2022-12-18T14:09:20;16.10;;;9.07;;
4724;SDS011;2376;53.544;10.226;2022-12-18T14:11:50;19.93;;;10.33;;
4724;SDS011;2376;53.544;10.226;2022-12-18T14:14:18;14.30;;;10.13;;
4724;SDS011;2376;53.544;10.226;2022-12-18T14:16:45;15.83;;;10.17;;
4724;SDS011;2376;53.544;10.226;2022-12-18T14:19:13;15.10;;;9.90;;
4724;SDS011;2376;53.544;10.226;2022-12-18T14:21:46;17.67;;;11.83;;
4724;SDS011;2376;53.544;10.226;2022-12-18T14:24:15;19.23;;;11.87;;
4724;SDS011;2376;53.544;10.226;2022-12-18T14:26:43;22.23;;;13.23;;
4724;SDS011;2376;53.544;10.226;2022-12-18T14:29:19;22.23;;;11.37;;
4724;SDS011;2376;53.544;10.226;2022-12-18T14:34:30;20.27;;;11.13;;
4724;SDS011;2376;53.544;10.226;2022-12-18T14:36:58;18.97;;;11.97;;
4724;SDS011;2376;53.544;10.226;2022-12-18T14:39:25;18.93;;;10.97;;
4724;SDS011;2376;53.544;10.226;2022-12-18T14:41:52;20.37;;;12.77;;
4724;SDS011;2376;53.544;10.226;2022-12-18T14:44:18;17.70;;;11.80;;
4724;SDS011;2376;53.544;10.226;2022-12-18T14:46:46;20.93;;;11.37;;
4724;SDS011;2376;53.544;10.226;2022-12-18T14:49:18;20.90;;;12.90;;
4724;SDS011;2376;53.544;10.226;2022-12-18T14:51:48;20.57;;;11.37;;
4724;SDS011;2376;53.544;10.226;2022-12-18T14:54:18;16.67;;;11.07;;
4724;SDS011;2376;53.544;10.226;2022-12-18T14:56:46;21.83;;;13.13;;
4724;SDS011;2376;53.544;10.226;2022-12-18T14:59:14;28.27;;;13.77;;
4724;SDS011;2376;53.544;10.226;2022-12-18T15:01:44;23.47;;;12.17;;
4724;SDS011;2376;53.544;10.226;2022-12-18T15:04:25;21.93;;;13.40;;
4724;SDS011;2376;53.544;10.226;2022-12-18T15:07:03;19.60;;;12.20;;
4724;SDS011;2376;53.544;10.226;2022-12-18T15:09:35;21.90;;;13.97;;
4724;SDS011;2376;53.544;10.226;2022-12-18T15:12:02;25.60;;;12.77;;
4724;SDS011;2376;53.544;10.226;2022-12-18T15:14:33;24.27;;;14.53;;
4724;SDS011;2376;53.544;10.226;2022-12-18T15:17:05;19.67;;;11.53;;
4724;SDS011;2376;53.544;10.226;2022-12-18T15:19:40;25.67;;;13.57;;
4724;SDS011;2376;53.544;10.226;2022-12-18T15:22:17;28.53;;;13.37;;
4724;SDS011;2376;53.544;10.226;2022-12-18T15:24:47;22.83;;;13.50;;